createdAt,value
2023-05-09T00:10:32.391Z,12.50
2023-05-09T00:20:53.573Z,12.39
2023-05-09T00:31:15.403Z,12.32
2023-05-09T00:41:37.055Z,12.23
2023-05-09T00:51:58.772Z,12.16
2023-05-09T01:02:20.390Z,12.09
2023-05-09T01:13:29.241Z,12.00
2023-05-09T01:24:14.880Z,11.94
2023-05-09T01:34:38.961Z,11.82
2023-05-09T01:45:00.242Z,11.72
2023-05-09T01:55:25.861Z,11.60
2023-05-09T02:05:48.238Z,11.49
2023-05-09T02:16:10.527Z,11.41
2023-05-09T02:26:31.870Z,11.30
2023-05-09T02:36:53.129Z,11.21
2023-05-09T02:47:14.171Z,11.11
2023-05-09T02:57:37.101Z,11.00
2023-05-09T03:07:58.411Z,10.90
2023-05-09T03:18:19.562Z,10.82
2023-05-09T03:28:41.174Z,10.72
2023-05-09T03:39:02.816Z,10.61
2023-05-09T03:49:24.681Z,10.54
2023-05-09T03:59:48.061Z,10.48
2023-05-09T04:10:12.003Z,10.41
2023-05-09T04:21:00.458Z,10.30
2023-05-09T04:31:23.352Z,10.20
2023-05-09T04:41:48.093Z,10.19
2023-05-09T04:52:11.473Z,10.13
2023-05-09T05:02:33.134Z,10.07
2023-05-09T05:12:54.658Z,10.03
2023-05-09T05:23:16.541Z,10.02
2023-05-09T05:33:37.827Z,9.95
2023-05-09T05:43:59.951Z,9.88
2023-05-09T05:54:21.391Z,9.88
2023-05-09T06:04:42.726Z,9.93
2023-05-09T06:15:06.246Z,10.07
2023-05-09T06:25:31.298Z,10.39
2023-05-09T06:35:52.922Z,10.67
2023-05-09T06:46:14.583Z,10.94
2023-05-09T06:56:35.936Z,11.18
2023-05-09T07:06:57.166Z,11.42
2023-05-09T07:17:23.547Z,11.66
2023-05-09T07:27:45.535Z,11.91
2023-05-09T07:38:07.293Z,12.14
2023-05-09T07:48:28.372Z,12.37
2023-05-09T07:58:49.606Z,12.57
2023-05-09T08:09:10.702Z,12.81
2023-05-09T08:19:32.024Z,13.05
2023-05-09T08:29:53.214Z,13.31
2023-05-09T08:40:15.336Z,13.54
2023-05-09T08:50:36.593Z,13.76
2023-05-09T09:00:58.913Z,13.98
2023-05-09T09:11:20.202Z,14.16
2023-05-09T09:21:44.862Z,14.35
2023-05-09T09:32:07.488Z,14.54
2023-05-09T09:42:44.491Z,14.70
2023-05-09T09:53:05.589Z,14.90
2023-05-09T10:03:36.167Z,15.05
2023-05-09T10:13:57.334Z,15.25
2023-05-09T10:24:28.532Z,15.45
2023-05-09T10:34:53.358Z,15.62
2023-05-09T10:45:15.033Z,15.86
2023-05-09T10:55:59.311Z,15.97
2023-05-09T11:06:42.142Z,16.12
2023-05-09T11:17:24.867Z,16.30
2023-05-09T11:27:49.716Z,16.44
2023-05-09T11:38:11.157Z,16.63
2023-05-09T11:48:38.833Z,16.81
2023-05-09T11:59:00.065Z,16.93
2023-05-09T12:09:21.358Z,17.08
2023-05-09T12:19:42.392Z,17.20
2023-05-09T12:30:16.175Z,17.30
2023-05-09T12:40:37.494Z,17.36
2023-05-09T12:51:03.485Z,17.39
2023-05-09T13:01:28.609Z,17.42
2023-05-09T13:11:51.301Z,17.44
2023-05-09T13:22:12.673Z,17.45
2023-05-09T13:32:35.199Z,17.45
2023-05-09T13:42:56.216Z,17.42
2023-05-09T13:53:17.413Z,17.39
2023-05-09T14:03:38.912Z,17.34
2023-05-09T14:14:00.139Z,17.31
2023-05-09T14:24:21.454Z,17.27
2023-05-09T14:34:42.602Z,17.19
2023-05-09T14:45:04.013Z,17.10
2023-05-09T14:55:26.850Z,17.03
2023-05-09T15:05:48.616Z,16.98
2023-05-09T15:16:09.852Z,16.91
2023-05-09T15:26:31.460Z,16.86
2023-05-09T15:36:52.441Z,16.81
2023-05-09T15:47:14.015Z,16.78
2023-05-09T15:57:35.158Z,16.77
2023-05-09T16:07:56.576Z,16.74
2023-05-09T16:18:17.855Z,16.75
2023-05-09T16:28:40.351Z,16.70
2023-05-09T16:39:01.425Z,16.64
2023-05-09T16:49:22.618Z,16.57
2023-05-09T16:59:43.837Z,16.52
2023-05-09T17:10:05.249Z,16.46
2023-05-09T17:20:27.258Z,16.38
2023-05-09T17:30:48.493Z,16.30
2023-05-09T17:41:09.936Z,16.19
2023-05-09T17:51:30.900Z,16.06
2023-05-09T18:01:52.291Z,15.94
2023-05-09T18:12:13.554Z,15.82
2023-05-09T18:22:34.909Z,15.71
2023-05-09T18:33:00.388Z,15.60
2023-05-09T18:43:21.819Z,15.50
2023-05-09T18:53:43.038Z,15.38
2023-05-09T19:04:04.649Z,15.29
2023-05-09T19:14:25.746Z,15.20
2023-05-09T19:24:46.939Z,15.10
2023-05-09T19:35:08.941Z,15.00
2023-05-09T19:45:30.413Z,14.92
2023-05-09T19:55:52.002Z,14.84
2023-05-09T20:06:35.352Z,14.74
2023-05-09T20:16:56.942Z,14.64
2023-05-09T20:27:17.980Z,14.56
2023-05-09T20:37:39.800Z,14.45
2023-05-09T20:48:02.152Z,14.37
2023-05-09T20:58:23.226Z,14.27
2023-05-09T21:08:44.396Z,14.19
2023-05-09T21:19:06.739Z,14.10
2023-05-09T21:29:28.001Z,14.03
2023-05-09T21:39:49.248Z,13.96
2023-05-09T21:50:10.815Z,13.87
2023-05-09T22:00:31.780Z,13.80
2023-05-09T22:10:53.141Z,13.73
2023-05-09T22:21:15.032Z,13.63
2023-05-09T22:31:36.293Z,13.56
2023-05-09T22:41:57.252Z,13.48
2023-05-09T22:52:18.755Z,13.43
2023-05-09T23:02:40.092Z,13.36
2023-05-09T23:13:01.472Z,13.30
2023-05-09T23:23:22.597Z,13.23
2023-05-09T23:33:44.150Z,13.18
2023-05-09T23:44:06.372Z,13.10
2023-05-09T23:54:27.551Z,13.03
